Time;durP1;ratioP1;P1;durP2;ratioP2;P2;SDS_P1;SDS_P2;PMS_P1;PMS_P2;Temp;Humidity;BMP_temperature;BMP_pressure;BME280_temperature;BME280_humidity;BME280_pressure;Samples;Min_cycle;Max_cycle;Signal;HPM_P1;HPM_P2
2021/05/09 00:00:57;;;;;;;36.60;26.00;;;2.60;99.90;;;;;;5022007;28;21258;-83
2021/05/09 00:03:25;;;;;;;35.97;25.77;;;2.60;99.90;;;;;;5023519;28;20200;-83
2021/05/09 00:05:54;;;;;;;37.50;25.87;;;2.50;99.90;;;;;;5021077;28;21031;-84
2021/05/09 00:08:21;;;;;;;35.97;25.80;;;2.40;99.90;;;;;;5037272;28;20203;-81
2021/05/09 00:10:49;;;;;;;39.97;26.73;;;2.40;99.90;;;;;;5049835;28;20179;-83
2021/05/09 00:13:17;;;;;;;37.77;26.00;;;2.60;99.90;;;;;;5050886;28;20190;-81
2021/05/09 00:15:46;;;;;;;35.93;26.30;;;2.50;99.90;;;;;;5046393;28;20242;-82
2021/05/09 00:18:15;;;;;;;37.73;26.50;;;2.40;99.90;;;;;;5032725;28;20249;-83
2021/05/09 00:20:43;;;;;;;40.10;26.47;;;2.40;99.90;;;;;;5024395;28;20407;-84
2021/05/09 00:23:11;;;;;;;37.97;27.67;;;2.40;99.90;;;;;;5036857;28;20198;-81
2021/05/09 00:25:39;;;;;;;40.67;27.47;;;2.40;99.90;;;;;;5036355;28;20210;-82
2021/05/09 00:28:07;;;;;;;38.03;26.60;;;2.50;99.90;;;;;;5015701;28;20202;-83
2021/05/09 00:30:35;;;;;;;39.43;26.67;;;2.20;99.90;;;;;;5032098;28;20206;-81
2021/05/09 00:33:03;;;;;;;38.70;26.70;;;2.30;99.90;;;;;;5043678;28;20249;-83
2021/05/09 00:35:32;;;;;;;42.87;27.73;;;2.20;99.90;;;;;;5034265;28;20228;-84
2021/05/09 00:38:00;;;;;;;38.73;26.23;;;2.20;99.90;;;;;;5035481;28;21009;-81
2021/05/09 00:40:27;;;;;;;36.13;26.47;;;2.10;99.90;;;;;;5044747;28;20206;-80
2021/05/09 00:42:56;;;;;;;37.03;26.50;;;2.20;99.90;;;;;;5020678;28;20261;-83
2021/05/09 00:45:24;;;;;;;37.73;27.20;;;2.20;99.90;;;;;;5020485;28;20195;-82
2021/05/09 00:47:52;;;;;;;42.10;27.20;;;2.20;99.90;;;;;;5027757;28;20256;-82
2021/05/09 00:50:21;;;;;;;39.60;26.77;;;2.20;99.90;;;;;;5036371;28;20314;-82
2021/05/09 00:52:50;;;;;;;40.37;27.90;;;2.20;99.90;;;;;;5030104;28;20229;-84
2021/05/09 00:55:19;;;;;;;39.90;27.53;;;2.10;99.90;;;;;;5044159;28;20336;-83
2021/05/09 00:57:48;;;;;;;39.97;26.90;;;1.90;99.90;;;;;;5046060;28;20226;-83
2021/05/09 01:00:17;;;;;;;39.33;26.83;;;1.90;99.90;;;;;;5040050;28;20203;-83
2021/05/09 01:02:46;;;;;;;43.00;28.07;;;1.80;99.90;;;;;;5028255;28;20208;-83
2021/05/09 01:05:14;;;;;;;46.60;30.83;;;1.90;99.90;;;;;;5032664;28;20212;-84
2021/05/09 01:07:42;;;;;;;54.60;33.47;;;1.80;99.90;;;;;;5038229;28;20266;-81
2021/05/09 01:10:14;;;;;;;65.23;39.23;;;2.10;99.90;;;;;;5034686;28;20202;-82
2021/05/09 01:12:42;;;;;;;89.50;50.20;;;1.90;99.90;;;;;;5039784;28;20208;-83
2021/05/09 01:15:11;;;;;;;92.63;54.17;;;1.90;99.90;;;;;;5031334;28;20307;-80
2021/05/09 01:17:39;;;;;;;89.50;56.57;;;1.80;99.90;;;;;;5026434;28;20570;-82
2021/05/09 01:20:35;;;;;;;96.50;59.60;;;1.70;99.90;;;;;;5031296;28;20287;-84
2021/05/09 01:23:04;;;;;;;98.17;57.90;;;1.70;99.90;;;;;;5018984;28;20537;-82
2021/05/09 01:25:32;;;;;;;97.13;57.83;;;1.80;99.90;;;;;;5028826;28;20202;-83
2021/05/09 01:27:59;;;;;;;71.10;46.53;;;1.50;99.90;;;;;;5025134;28;20644;-82
2021/05/09 01:30:28;;;;;;;69.03;43.30;;;1.70;99.90;;;;;;5033383;28;20207;-85
2021/05/09 01:32:56;;;;;;;65.10;40.43;;;1.90;99.90;;;;;;5031951;28;20261;-82
2021/05/09 01:35:24;;;;;;;53.50;36.77;;;1.80;99.90;;;;;;5047451;28;20812;-81
2021/05/09 01:37:52;;;;;;;53.23;37.50;;;1.70;99.90;;;;;;5038177;28;20722;-84
2021/05/09 01:40:20;;;;;;;51.60;35.73;;;1.70;99.90;;;;;;5032273;28;20198;-82
2021/05/09 01:42:48;;;;;;;51.90;35.27;;;1.60;99.90;;;;;;5023376;28;20203;-82
2021/05/09 01:45:16;;;;;;;50.57;33.30;;;1.50;99.90;;;;;;5026677;28;20202;-80
2021/05/09 01:47:44;;;;;;;49.53;32.70;;;1.40;99.90;;;;;;5044481;28;20616;-82
2021/05/09 01:50:14;;;;;;;47.17;31.63;;;1.50;99.90;;;;;;5008133;28;20648;-80
2021/05/09 01:52:42;;;;;;;44.50;31.80;;;1.50;99.90;;;;;;5029319;28;20746;-84
2021/05/09 01:55:13;;;;;;;50.70;32.77;;;1.50;99.90;;;;;;5023826;28;20245;-84
2021/05/09 01:57:41;;;;;;;47.47;31.60;;;1.40;99.90;;;;;;5017729;28;20255;-83
2021/05/09 02:00:10;;;;;;;43.93;31.57;;;1.40;99.90;;;;;;5020704;28;20198;-82
2021/05/09 02:02:38;;;;;;;44.47;31.83;;;1.50;99.90;;;;;;5025800;28;20214;-82
2021/05/09 02:05:06;;;;;;;46.43;31.67;;;1.40;99.90;;;;;;5028991;28;20220;-80
2021/05/09 02:07:35;;;;;;;47.20;32.67;;;1.50;99.90;;;;;;5041235;28;20203;-81
2021/05/09 02:10:05;;;;;;;47.53;32.20;;;1.40;99.90;;;;;;5038013;28;20215;-80
2021/05/09 02:12:33;;;;;;;67.23;46.77;;;1.40;99.90;;;;;;5041579;28;20217;-81
2021/05/09 02:15:00;;;;;;;66.20;49.43;;;1.50;99.90;;;;;;5030896;28;20213;-83
2021/05/09 02:17:28;;;;;;;67.40;50.93;;;1.30;99.90;;;;;;5031257;28;20574;-82
2021/05/09 02:19:55;;;;;;;64.07;44.90;;;1.30;99.90;;;;;;5030478;28;20410;-83
2021/05/09 02:22:23;;;;;;;59.60;41.97;;;1.30;99.90;;;;;;5031710;28;20440;-81
2021/05/09 02:24:52;;;;;;;58.00;37.80;;;1.40;99.90;;;;;;5039799;28;20331;-81
2021/05/09 02:27:20;;;;;;;51.53;35.60;;;1.50;99.90;;;;;;5034203;28;20202;-80
2021/05/09 02:29:48;;;;;;;50.03;36.20;;;1.60;99.90;;;;;;5041276;28;20298;-84
2021/05/09 02:32:16;;;;;;;54.87;36.60;;;1.50;99.90;;;;;;5034389;28;20301;-80
2021/05/09 02:34:43;;;;;;;60.43;42.40;;;1.40;99.90;;;;;;5037477;28;20198;-82
2021/05/09 02:37:11;;;;;;;51.87;36.87;;;1.40;99.90;;;;;;5013058;28;20317;-82
2021/05/09 02:39:39;;;;;;;51.00;35.47;;;1.40;99.90;;;;;;5040763;28;20309;-81
2021/05/09 02:42:06;;;;;;;48.97;36.20;;;1.40;99.90;;;;;;5027864;28;20213;-84
2021/05/09 02:44:35;;;;;;;58.27;38.73;;;1.40;99.90;;;;;;5030982;28;20284;-81
2021/05/09 02:47:05;;;;;;;53.40;35.87;;;1.30;99.90;;;;;;5040568;28;20214;-82
2021/05/09 02:49:33;;;;;;;56.13;37.53;;;1.30;99.90;;;;;;5033219;28;20214;-81
2021/05/09 02:52:00;;;;;;;48.43;35.53;;;1.20;99.90;;;;;;5031761;28;21213;-82
2021/05/09 02:54:28;;;;;;;53.33;36.03;;;1.20;99.90;;;;;;5032515;28;20220;-81
2021/05/09 02:56:56;;;;;;;55.30;36.70;;;1.20;99.90;;;;;;5037010;28;20199;-83
2021/05/09 02:59:23;;;;;;;52.80;36.77;;;1.20;99.90;;;;;;5031067;28;20301;-83
2021/05/09 03:01:56;;;;;;;59.20;36.77;;;1.30;99.90;;;;;;5023885;28;20257;-81
2021/05/09 03:04:24;;;;;;;57.33;39.03;;;1.10;99.90;;;;;;5031853;28;20315;-81
2021/05/09 03:06:52;;;;;;;64.50;43.87;;;1.10;99.90;;;;;;5035287;28;20617;-80
2021/05/09 03:09:19;;;;;;;67.03;43.67;;;1.30;99.90;;;;;;5027354;28;20208;-82
2021/05/09 03:11:47;;;;;;;70.67;47.33;;;1.40;99.90;;;;;;5044050;28;20254;-81
2021/05/09 03:14:14;;;;;;;71.30;44.90;;;1.50;99.90;;;;;;5034528;28;20208;-82
2021/05/09 03:16:42;;;;;;;65.83;42.97;;;1.60;99.90;;;;;;5036012;28;20202;-82
2021/05/09 03:19:11;;;;;;;69.07;45.97;;;1.70;99.90;;;;;;5039368;28;20221;-80
2021/05/09 03:21:41;;;;;;;112.10;76.03;;;1.90;99.90;;;;;;5042759;28;20466;-84
2021/05/09 03:24:10;;;;;;;85.43;61.00;;;1.80;99.90;;;;;;5035876;28;20230;-83
2021/05/09 03:26:38;;;;;;;80.97;58.17;;;1.80;99.90;;;;;;5025842;28;20588;-81
2021/05/09 03:29:06;;;;;;;77.03;54.00;;;1.70;99.90;;;;;;5025849;28;20496;-81
2021/05/09 03:31:34;;;;;;;75.20;51.37;;;1.80;99.90;;;;;;5023693;28;20211;-86
2021/05/09 03:34:03;;;;;;;73.03;51.67;;;1.90;99.90;;;;;;5024381;28;20234;-82
2021/05/09 03:36:31;;;;;;;75.97;53.37;;;2.00;99.90;;;;;;5028376;28;20209;-83
2021/05/09 03:38:59;;;;;;;77.13;54.43;;;2.00;99.90;;;;;;5022139;28;20241;-81
2021/05/09 03:41:27;;;;;;;72.83;51.07;;;2.10;99.90;;;;;;5028968;28;20232;-81
2021/05/09 03:43:55;;;;;;;76.83;52.00;;;2.30;99.90;;;;;;5030823;28;20213;-81
2021/05/09 03:46:23;;;;;;;74.20;53.33;;;2.20;99.90;;;;;;5029626;28;20746;-82
2021/05/09 03:48:50;;;;;;;91.50;62.73;;;2.30;99.90;;;;;;5027348;28;20225;-82
2021/05/09 03:51:18;;;;;;;87.33;65.93;;;2.40;99.90;;;;;;5029184;28;20558;-82
2021/05/09 03:53:48;;;;;;;78.50;57.67;;;2.40;99.90;;;;;;5033901;28;20210;-80
2021/05/09 03:56:15;;;;;;;76.83;52.70;;;2.50;99.90;;;;;;5034335;28;20202;-81
2021/05/09 03:58:43;;;;;;;62.77;46.40;;;2.60;99.90;;;;;;5033525;28;20237;-83
2021/05/09 04:01:11;;;;;;;70.10;49.27;;;2.80;99.90;;;;;;5034636;28;20207;-83
2021/05/09 04:03:38;;;;;;;60.80;44.17;;;3.00;99.90;;;;;;5035527;28;20210;-81
2021/05/09 04:06:06;;;;;;;59.93;42.57;;;3.10;99.90;;;;;;5024546;28;20665;-82
2021/05/09 04:08:34;;;;;;;58.40;42.77;;;3.20;99.90;;;;;;5022293;28;20490;-84
2021/05/09 04:11:03;;;;;;;57.07;41.37;;;3.30;99.90;;;;;;5028480;28;20291;-83
2021/05/09 04:13:43;;;;;;;52.83;37.43;;;3.30;99.90;;;;;;5032963;28;20207;-82
2021/05/09 04:16:11;;;;;;;50.63;38.07;;;3.40;99.90;;;;;;5031409;28;20475;-81
2021/05/09 04:18:39;;;;;;;47.40;35.30;;;3.50;99.90;;;;;;5029376;28;20428;-83
2021/05/09 04:21:07;;;;;;;46.67;33.80;;;3.60;99.90;;;;;;5029590;28;20213;-83
2021/05/09 04:23:35;;;;;;;45.40;33.07;;;3.60;99.90;;;;;;5029793;28;20272;-82
2021/05/09 04:26:03;;;;;;;44.80;32.40;;;3.80;99.90;;;;;;5026831;28;20248;-85
2021/05/09 04:28:31;;;;;;;46.80;33.30;;;3.90;99.90;;;;;;5029405;28;20207;-80
2021/05/09 04:30:59;;;;;;;43.90;31.10;;;4.10;99.90;;;;;;5014576;28;20527;-80
2021/05/09 04:33:28;;;;;;;44.07;30.40;;;4.20;99.90;;;;;;5031878;28;20251;-81
2021/05/09 04:35:55;;;;;;;36.03;28.80;;;4.30;99.90;;;;;;5026555;28;20541;-82
2021/05/09 04:38:23;;;;;;;36.80;26.77;;;4.50;99.90;;;;;;5023590;28;20219;-84
2021/05/09 04:40:51;;;;;;;39.70;27.10;;;4.60;99.90;;;;;;5020815;28;20540;-82
2021/05/09 04:43:21;;;;;;;32.53;26.00;;;4.80;99.90;;;;;;5030263;28;20213;-82
2021/05/09 04:45:50;;;;;;;34.20;25.33;;;5.00;99.90;;;;;;5035458;28;20725;-82
2021/05/09 04:48:18;;;;;;;31.77;24.20;;;5.20;99.10;;;;;;5030625;28;20457;-83
2021/05/09 04:50:46;;;;;;;29.53;22.67;;;5.50;99.90;;;;;;5020565;28;20722;-82
2021/05/09 04:53:25;;;;;;;32.77;23.47;;;5.70;98.00;;;;;;5027391;28;20738;-81
2021/05/09 04:55:53;;;;;;;28.93;22.50;;;5.90;95.40;;;;;;5023719;28;21172;-84
2021/05/09 04:58:21;;;;;;;27.33;22.30;;;6.00;95.80;;;;;;5023808;28;20280;-84
2021/05/09 05:00:52;;;;;;;30.20;21.93;;;6.20;95.80;;;;;;5024072;28;20191;-83
2021/05/09 05:03:20;;;;;;;28.33;21.77;;;6.40;93.80;;;;;;5021601;28;20290;-84
2021/05/09 05:05:48;;;;;;;29.13;21.50;;;6.60;93.00;;;;;;5027346;28;20280;-85
2021/05/09 05:08:15;;;;;;;29.67;21.63;;;6.80;94.30;;;;;;5025850;28;20922;-87
2021/05/09 05:10:43;;;;;;;27.40;20.03;;;7.00;94.80;;;;;;5021816;28;20294;-83
2021/05/09 05:13:17;;;;;;;28.17;19.97;;;7.20;93.60;;;;;;5025711;28;20216;-82
2021/05/09 05:15:47;;;;;;;31.33;21.10;;;7.30;91.10;;;;;;5020302;28;20674;-84
2021/05/09 05:18:16;;;;;;;26.00;20.20;;;7.40;91.50;;;;;;5020120;28;20233;-82
2021/05/09 05:20:44;;;;;;;26.70;20.23;;;7.50;92.00;;;;;;5025174;28;20212;-83
2021/05/09 05:23:12;;;;;;;24.37;18.07;;;7.70;91.10;;;;;;5029454;28;20742;-82
2021/05/09 05:25:40;;;;;;;24.70;17.77;;;7.80;88.70;;;;;;5036501;28;20205;-83
2021/05/09 05:28:11;;;;;;;24.07;17.97;;;7.90;89.20;;;;;;5028095;28;20208;-81
2021/05/09 05:30:38;;;;;;;25.27;18.10;;;8.00;88.50;;;;;;5023985;28;20216;-82
2021/05/09 05:33:08;;;;;;;22.83;17.30;;;8.10;88.50;;;;;;5024670;28;20205;-81
2021/05/09 05:35:35;;;;;;;21.37;17.70;;;8.20;87.40;;;;;;5031906;28;20224;-84
2021/05/09 05:38:03;;;;;;;22.10;17.50;;;8.30;88.90;;;;;;5031723;28;20208;-82
2021/05/09 05:40:30;;;;;;;22.37;17.80;;;8.50;87.20;;;;;;5037809;28;20205;-82
2021/05/09 05:42:58;;;;;;;19.00;16.53;;;8.60;87.90;;;;;;5046047;28;20203;-82
2021/05/09 05:45:28;;;;;;;19.27;16.00;;;8.90;87.20;;;;;;5030355;28;20202;-84
2021/05/09 05:47:55;;;;;;;20.40;15.53;;;8.90;86.60;;;;;;5015501;28;20257;-84
2021/05/09 05:50:24;;;;;;;21.20;17.03;;;9.10;85.90;;;;;;5025908;28;20201;-82
2021/05/09 05:52:57;;;;;;;21.37;16.00;;;9.20;85.50;;;;;;5016489;28;20680;-83
2021/05/09 05:55:24;;;;;;;21.57;15.87;;;9.40;85.20;;;;;;5018091;28;20535;-83
2021/05/09 05:57:52;;;;;;;19.83;15.50;;;9.40;83.80;;;;;;5019985;28;20583;-85
2021/05/09 06:00:20;;;;;;;18.43;14.73;;;9.50;83.70;;;;;;5022458;28;20209;-81
2021/05/09 06:02:48;;;;;;;19.93;14.63;;;9.70;83.00;;;;;;5022910;28;20217;-83
2021/05/09 06:05:17;;;;;;;18.27;14.47;;;9.80;83.00;;;;;;5020191;28;20211;-84
2021/05/09 06:07:45;;;;;;;18.00;13.37;;;10.10;82.80;;;;;;5020581;28;20238;-83
2021/05/09 06:10:13;;;;;;;15.60;12.73;;;10.30;81.90;;;;;;5020873;28;20435;-80
2021/05/09 06:12:41;;;;;;;15.57;13.07;;;10.40;81.70;;;;;;5019657;28;20284;-83
2021/05/09 06:15:09;;;;;;;16.17;12.57;;;10.40;81.30;;;;;;5028463;28;20205;-81
2021/05/09 06:17:37;;;;;;;13.73;11.40;;;10.60;81.50;;;;;;5043007;28;20211;-84
2021/05/09 06:20:07;;;;;;;15.07;11.07;;;10.80;81.00;;;;;;5045466;28;20426;-82
2021/05/09 06:22:34;;;;;;;12.50;10.20;;;11.00;80.40;;;;;;5044927;28;20193;-81
2021/05/09 06:25:04;;;;;;;14.63;10.87;;;11.20;80.00;;;;;;5026040;28;20211;-83
2021/05/09 06:27:31;;;;;;;14.80;10.63;;;11.20;78.90;;;;;;5023231;28;20205;-81
2021/05/09 06:29:59;;;;;;;12.53;10.43;;;11.30;78.70;;;;;;5018132;28;20224;-84
2021/05/09 06:32:26;;;;;;;15.17;11.40;;;11.40;78.50;;;;;;5026493;28;20207;-81
2021/05/09 06:34:55;;;;;;;14.17;10.80;;;11.50;78.40;;;;;;5023571;28;20230;-81
2021/05/09 06:37:24;;;;;;;13.97;9.50;;;11.70;78.50;;;;;;5024884;28;20242;-85
2021/05/09 06:39:52;;;;;;;11.07;9.80;;;11.80;77.80;;;;;;5031766;28;20226;-84
2021/05/09 06:42:21;;;;;;;12.10;9.43;;;11.90;77.20;;;;;;5034605;28;20206;-81
2021/05/09 06:44:54;;;;;;;11.23;9.23;;;12.20;76.80;;;;;;5041394;28;20262;-84
2021/05/09 06:47:21;;;;;;;10.40;8.70;;;12.30;76.30;;;;;;5034957;28;20202;-82
2021/05/09 06:49:48;;;;;;;10.33;9.23;;;12.40;75.60;;;;;;5045526;28;20206;-82
2021/05/09 06:52:19;;;;;;;10.43;8.13;;;12.60;75.70;;;;;;5046626;28;20498;-83
2021/05/09 06:54:46;;;;;;;10.23;7.97;;;12.70;74.10;;;;;;5024271;28;20198;-81
2021/05/09 06:57:14;;;;;;;8.87;7.67;;;12.80;74.00;;;;;;5028847;28;20210;-80
2021/05/09 06:59:42;;;;;;;8.83;7.57;;;12.90;73.00;;;;;;5021854;28;20330;-82
2021/05/09 07:02:09;;;;;;;9.53;7.83;;;12.90;72.70;;;;;;5021724;28;20221;-83
2021/05/09 07:04:37;;;;;;;8.80;7.43;;;12.90;72.20;;;;;;5034893;28;20318;-79
2021/05/09 07:07:04;;;;;;;10.70;8.30;;;12.90;72.40;;;;;;5034779;28;20328;-81
2021/05/09 07:09:32;;;;;;;10.83;7.90;;;13.00;72.40;;;;;;5044636;28;20209;-81
2021/05/09 07:11:59;;;;;;;10.30;7.80;;;13.00;72.40;;;;;;5035052;28;20209;-81
2021/05/09 07:14:27;;;;;;;11.20;7.60;;;13.20;72.50;;;;;;5028063;28;20201;-80
2021/05/09 07:16:55;;;;;;;10.03;7.60;;;13.30;71.90;;;;;;5023258;28;20242;-83
2021/05/09 07:19:22;;;;;;;8.90;7.70;;;13.40;72.10;;;;;;5022710;28;20654;-83
2021/05/09 07:21:55;;;;;;;9.87;7.47;;;13.50;72.00;;;;;;5019916;28;20209;-81
2021/05/09 07:24:22;;;;;;;8.17;6.90;;;13.70;71.10;;;;;;5021385;28;20305;-82
2021/05/09 07:26:50;;;;;;;9.07;7.00;;;13.80;71.30;;;;;;5026088;28;20263;-83
2021/05/09 07:29:18;;;;;;;10.57;6.23;;;14.00;70.40;;;;;;5015832;28;20207;-84
2021/05/09 07:31:47;;;;;;;9.23;6.63;;;14.10;69.30;;;;;;5027501;28;20203;-82
2021/05/09 07:34:16;;;;;;;9.67;6.90;;;14.10;69.20;;;;;;5020558;28;20211;-83
2021/05/09 07:36:43;;;;;;;9.13;6.50;;;14.20;69.60;;;;;;5020086;28;20983;-83
2021/05/09 07:39:11;;;;;;;8.93;6.70;;;14.30;68.50;;;;;;5022930;28;20230;-82
2021/05/09 07:41:39;;;;;;;7.40;6.20;;;14.20;68.20;;;;;;5005609;28;21471;-83
2021/05/09 07:44:07;;;;;;;9.80;6.40;;;14.30;68.40;;;;;;5021333;28;20256;-84
2021/05/09 07:46:35;;;;;;;7.60;6.27;;;14.30;68.20;;;;;;5027126;28;20207;-81
2021/05/09 07:49:02;;;;;;;7.57;6.43;;;14.50;67.80;;;;;;5024368;28;20213;-83
2021/05/09 07:51:35;;;;;;;9.10;6.10;;;14.50;68.30;;;;;;5021297;28;20269;-83
2021/05/09 07:54:04;;;;;;;6.87;6.03;;;14.70;67.50;;;;;;5026340;28;20217;-82
2021/05/09 07:56:33;;;;;;;9.33;6.23;;;14.80;66.80;;;;;;5022803;28;20211;-81
2021/05/09 07:59:01;;;;;;;7.60;5.97;;;15.00;65.70;;;;;;5024138;28;20225;-81
2021/05/09 08:01:28;;;;;;;8.53;5.83;;;15.20;65.70;;;;;;5028494;28;20261;-81
2021/05/09 08:03:56;;;;;;;7.77;5.40;;;15.30;64.80;;;;;;5037883;28;20178;-81
2021/05/09 08:06:26;;;;;;;7.83;5.40;;;15.40;63.00;;;;;;5035568;28;20206;-82
2021/05/09 08:08:55;;;;;;;7.03;5.67;;;15.60;63.70;;;;;;5030036;28;20202;-84
2021/05/09 08:11:23;;;;;;;6.73;5.87;;;15.60;62.50;;;;;;5032907;28;20213;-82
2021/05/09 08:13:50;;;;;;;8.57;5.77;;;15.70;63.20;;;;;;5030427;28;20210;-82
2021/05/09 08:16:19;;;;;;;7.33;5.50;;;15.70;62.00;;;;;;5040398;28;20245;-80
2021/05/09 08:18:47;;;;;;;7.77;5.53;;;15.80;62.30;;;;;;5020765;28;20242;-83
2021/05/09 08:21:15;;;;;;;7.40;5.97;;;15.80;61.80;;;;;;5029311;28;20230;-81
2021/05/09 08:23:44;;;;;;;6.53;5.50;;;15.80;60.70;;;;;;5039011;28;20284;-81
2021/05/09 08:26:12;;;;;;;7.70;5.20;;;16.00;60.90;;;;;;5032762;28;20595;-84
2021/05/09 08:28:42;;;;;;;8.17;5.87;;;16.20;61.40;;;;;;5026511;28;20264;-87
2021/05/09 08:31:12;;;;;;;7.60;5.77;;;16.40;60.80;;;;;;5026721;28;20234;-84
2021/05/09 08:33:40;;;;;;;10.20;6.10;;;16.50;60.50;;;;;;5008676;28;20296;-83
2021/05/09 08:36:11;;;;;;;8.13;6.30;;;16.60;59.60;;;;;;5033802;28;20211;-85
2021/05/09 08:38:39;;;;;;;7.33;5.37;;;16.50;58.50;;;;;;5023880;28;20540;-83
2021/05/09 08:41:09;;;;;;;8.57;6.03;;;16.50;60.30;;;;;;5031844;28;20225;-83
2021/05/09 08:43:38;;;;;;;6.67;5.57;;;16.60;58.10;;;;;;5025203;28;20541;-83
2021/05/09 08:46:06;;;;;;;7.43;5.83;;;16.70;57.90;;;;;;5036440;28;20211;-83
2021/05/09 08:48:36;;;;;;;7.20;5.53;;;16.70;58.20;;;;;;5030146;28;20809;-84
2021/05/09 08:51:05;;;;;;;6.50;5.70;;;16.70;58.40;;;;;;5037229;28;20210;-84
2021/05/09 08:53:33;;;;;;;7.07;5.27;;;16.70;58.20;;;;;;5036029;28;20202;-83
2021/05/09 08:56:01;;;;;;;8.50;5.80;;;16.70;57.10;;;;;;5012500;28;20217;-81
2021/05/09 08:58:28;;;;;;;8.03;5.10;;;16.70;58.00;;;;;;5043057;28;20221;-83
2021/05/09 09:00:56;;;;;;;6.40;5.10;;;16.80;58.40;;;;;;5048763;28;20208;-84
2021/05/09 09:03:24;;;;;;;8.57;5.77;;;16.80;60.10;;;;;;5058157;28;20405;-81
2021/05/09 09:05:52;;;;;;;6.83;5.77;;;16.80;58.50;;;;;;5054750;28;20216;-80
2021/05/09 09:08:20;;;;;;;6.33;5.20;;;16.90;58.70;;;;;;5052154;28;20204;-83
2021/05/09 09:10:50;;;;;;;7.27;5.23;;;16.90;58.30;;;;;;5052838;28;20201;-83
2021/05/09 09:13:21;;;;;;;6.17;5.10;;;17.00;58.10;;;;;;5041236;28;20217;-81
2021/05/09 09:15:54;;;;;;;6.27;4.90;;;17.10;59.00;;;;;;5052461;28;20254;-81
2021/05/09 09:18:28;;;;;;;7.13;4.83;;;17.10;58.60;;;;;;5049675;28;20190;-81
2021/05/09 09:20:56;;;;;;;7.47;5.87;;;17.10;58.60;;;;;;5043092;28;20210;-81
2021/05/09 09:23:42;;;;;;;8.43;5.50;;;17.10;58.50;;;;;;5028942;28;20214;-82
2021/05/09 09:26:28;;;;;;;7.60;4.87;;;17.10;59.90;;;;;;5050914;28;20292;-82
2021/05/09 09:28:57;;;;;;;9.27;5.03;;;17.20;58.60;;;;;;5051901;28;20609;-83
2021/05/09 09:31:41;;;;;;;6.13;4.57;;;17.20;56.00;;;;;;5050724;28;20209;-81
2021/05/09 09:34:11;;;;;;;8.07;5.07;;;17.30;55.40;;;;;;5049703;28;20213;-83
2021/05/09 09:36:39;;;;;;;6.20;4.80;;;17.30;56.00;;;;;;5048899;28;20210;-82
2021/05/09 09:39:08;;;;;;;6.07;4.30;;;17.40;56.20;;;;;;5047498;28;20242;-82
2021/05/09 09:41:44;;;;;;;8.13;4.73;;;17.40;56.90;;;;;;5046863;28;20201;-85
2021/05/09 09:44:15;;;;;;;7.30;4.47;;;17.50;56.90;;;;;;5050237;28;20289;-83
2021/05/09 09:46:49;;;;;;;4.97;4.10;;;17.60;55.90;;;;;;5040371;28;21375;-83
2021/05/09 09:49:32;;;;;;;4.40;3.80;;;17.50;55.60;;;;;;5039248;28;20284;-84
2021/05/09 09:52:01;;;;;;;5.77;4.37;;;17.50;53.90;;;;;;5032650;28;20267;-83
2021/05/09 09:54:38;;;;;;;4.87;3.73;;;17.50;55.90;;;;;;5041804;28;20198;-84
2021/05/09 09:57:08;;;;;;;5.00;4.03;;;17.50;54.90;;;;;;5040193;28;20561;-81
2021/05/09 09:59:36;;;;;;;4.70;3.80;;;17.50;54.00;;;;;;5048331;28;20239;-82
2021/05/09 10:02:06;;;;;;;5.73;3.97;;;17.50;54.70;;;;;;5044314;28;20194;-81
2021/05/09 10:04:35;;;;;;;7.07;3.80;;;17.50;53.40;;;;;;5049077;28;20210;-81
2021/05/09 10:07:08;;;;;;;5.23;3.40;;;17.40;52.80;;;;;;5050670;28;20399;-83
2021/05/09 10:09:37;;;;;;;4.97;3.70;;;17.30;52.50;;;;;;5043290;28;20217;-82
2021/05/09 10:12:05;;;;;;;4.87;3.63;;;17.30;53.20;;;;;;5052319;28;20183;-83
2021/05/09 10:14:35;;;;;;;3.60;3.30;;;17.30;54.50;;;;;;5043871;28;20194;-83
2021/05/09 10:17:04;;;;;;;5.23;3.83;;;17.50;53.20;;;;;;5034355;28;20207;-81
2021/05/09 10:19:34;;;;;;;5.17;3.93;;;17.50;53.10;;;;;;5049381;28;20211;-80
2021/05/09 10:22:29;;;;;;;3.90;3.60;;;17.50;52.30;;;;;;5040528;28;20269;-82
2021/05/09 10:24:59;;;;;;;3.77;3.40;;;17.50;53.30;;;;;;5037576;28;20556;-84
2021/05/09 10:27:39;;;;;;;4.10;3.70;;;17.50;53.20;;;;;;5040482;28;20595;-83
2021/05/09 10:30:08;;;;;;;5.67;3.87;;;17.50;53.00;;;;;;5045795;28;20256;-83
2021/05/09 10:32:51;;;;;;;5.53;3.00;;;17.50;52.90;;;;;;5049097;28;20190;-85
2021/05/09 10:35:35;;;;;;;3.80;3.40;;;17.60;52.30;;;;;;5052487;28;20210;-83
2021/05/09 10:38:06;;;;;;;4.30;3.80;;;17.60;53.20;;;;;;5011410;28;20214;-81
2021/05/09 10:40:39;;;;;;;4.03;3.63;;;17.80;53.20;;;;;;5028730;28;20897;-84
2021/05/09 10:43:31;;;;;;;5.33;3.47;;;17.70;52.60;;;;;;5019657;28;20229;-85
2021/05/09 10:45:59;;;;;;;5.43;3.27;;;17.70;52.30;;;;;;5017155;28;20392;-84
2021/05/09 10:48:33;;;;;;;4.03;3.63;;;17.70;51.50;;;;;;5028816;28;20217;-81
2021/05/09 10:51:27;;;;;;;4.27;3.33;;;17.60;52.30;;;;;;5019953;28;20206;-83
2021/05/09 10:53:57;;;;;;;3.80;3.33;;;17.90;52.70;;;;;;5015384;28;20222;-81
2021/05/09 10:56:32;;;;;;;4.43;3.73;;;18.10;53.40;;;;;;5023970;28;20372;-82
2021/05/09 10:59:01;;;;;;;3.93;3.40;;;18.00;52.20;;;;;;5028337;28;20273;-81
2021/05/09 11:01:32;;;;;;;4.77;3.50;;;18.00;52.00;;;;;;5032721;28;20203;-83
2021/05/09 11:04:02;;;;;;;3.30;2.80;;;18.00;52.40;;;;;;5018421;28;20198;-84
2021/05/09 11:06:50;;;;;;;4.57;3.70;;;18.10;52.50;;;;;;5027819;28;20205;-84
2021/05/09 11:09:32;;;;;;;5.00;3.27;;;18.10;52.60;;;;;;5028036;28;20199;-85
2021/05/09 11:12:01;;;;;;;7.03;4.37;;;18.20;52.00;;;;;;5034415;28;20217;-81
2021/05/09 11:14:41;;;;;;;3.83;3.43;;;18.20;50.70;;;;;;5033908;28;20202;-82
2021/05/09 11:17:13;;;;;;;3.57;3.10;;;18.20;51.40;;;;;;5036463;28;20202;-84
2021/05/09 11:19:47;;;;;;;3.70;3.20;;;18.10;51.10;;;;;;5038168;28;20457;-81
2021/05/09 11:22:24;;;;;;;3.30;3.00;;;18.10;50.10;;;;;;5030067;28;20198;-83
2021/05/09 11:25:00;;;;;;;4.20;3.43;;;18.10;50.40;;;;;;5033982;28;20276;-81
2021/05/09 11:27:30;;;;;;;4.03;3.20;;;18.10;50.80;;;;;;5021412;28;20210;-82
2021/05/09 11:30:02;;;;;;;3.20;2.90;;;18.10;50.70;;;;;;5032919;28;20205;-85
2021/05/09 11:32:32;;;;;;;3.50;3.20;;;18.30;51.40;;;;;;5028615;28;20199;-83
2021/05/09 11:35:03;;;;;;;3.60;3.30;;;18.30;51.50;;;;;;5031358;28;20369;-81
2021/05/09 11:37:36;;;;;;;4.03;2.97;;;18.30;51.00;;;;;;5029327;28;20264;-83
2021/05/09 11:40:09;;;;;;;3.30;3.00;;;18.30;50.70;;;;;;5030346;28;20241;-82
2021/05/09 11:42:37;;;;;;;3.17;2.80;;;18.40;51.30;;;;;;5025678;28;20546;-83
2021/05/09 11:45:06;;;;;;;3.50;3.20;;;18.50;49.50;;;;;;5028961;28;20199;-82
2021/05/09 11:47:35;;;;;;;3.00;2.80;;;18.40;50.30;;;;;;5034904;28;20237;-81
2021/05/09 11:50:09;;;;;;;3.33;2.83;;;18.50;50.40;;;;;;5043117;28;20199;-81
2021/05/09 11:52:40;;;;;;;3.50;3.20;;;18.60;51.30;;;;;;5041303;28;20633;-85
2021/05/09 11:55:11;;;;;;;2.93;2.63;;;18.70;50.30;;;;;;5038760;28;20656;-81
2021/05/09 11:57:39;;;;;;;3.30;2.73;;;18.70;50.50;;;;;;5035059;28;20443;-83
2021/05/09 12:00:08;;;;;;;4.53;2.80;;;18.70;50.10;;;;;;5036890;28;20229;-80
2021/05/09 12:02:37;;;;;;;3.30;3.00;;;18.80;50.20;;;;;;5046915;28;20186;-84
2021/05/09 12:05:09;;;;;;;4.57;2.60;;;18.90;49.80;;;;;;5047744;28;20210;-84
2021/05/09 12:07:44;;;;;;;4.77;2.83;;;18.90;48.60;;;;;;5030597;28;20210;-83
2021/05/09 12:10:16;;;;;;;3.60;2.63;;;18.80;48.80;;;;;;5025395;28;20207;-82
2021/05/09 12:12:45;;;;;;;2.77;2.50;;;18.90;49.80;;;;;;5023539;28;20202;-82
2021/05/09 12:15:15;;;;;;;2.67;2.40;;;19.00;49.30;;;;;;5029402;28;20202;-81
2021/05/09 12:17:48;;;;;;;2.60;2.40;;;19.10;49.60;;;;;;5026077;28;20209;-83
2021/05/09 12:20:35;;;;;;;3.03;2.73;;;19.20;49.20;;;;;;5030810;28;20252;-84
2021/05/09 12:23:06;;;;;;;3.70;2.70;;;19.20;49.30;;;;;;5030233;28;20663;-83
2021/05/09 12:25:39;;;;;;;3.03;2.53;;;19.30;47.90;;;;;;5028339;28;21112;-82
2021/05/09 12:28:16;;;;;;;3.30;2.40;;;19.30;49.60;;;;;;5028812;28;20249;-85
2021/05/09 12:30:45;;;;;;;2.50;2.30;;;19.40;47.80;;;;;;5036845;28;20194;-82
2021/05/09 12:33:24;;;;;;;3.20;2.50;;;19.60;48.30;;;;;;5016590;28;20472;-80
2021/05/09 12:35:54;;;;;;;3.20;2.43;;;19.60;48.00;;;;;;5032014;28;20210;-83
2021/05/09 12:38:24;;;;;;;3.07;2.73;;;19.80;48.70;;;;;;5034691;28;20918;-85
2021/05/09 12:41:03;;;;;;;3.57;2.40;;;20.00;47.50;;;;;;5028059;28;21169;-81
2021/05/09 12:43:46;;;;;;;3.07;2.27;;;20.10;47.50;;;;;;5029799;28;20298;-84
2021/05/09 12:46:39;;;;;;;3.30;2.60;;;20.10;46.70;;;;;;5041297;28;20195;-84
2021/05/09 12:49:12;;;;;;;2.30;2.10;;;20.20;47.00;;;;;;5052266;28;20217;-83
2021/05/09 12:51:59;;;;;;;2.57;2.30;;;20.30;47.50;;;;;;5039719;28;20195;-80
2021/05/09 12:54:31;;;;;;;2.40;2.20;;;20.50;47.30;;;;;;5039145;28;20203;-83